Time;durP1;ratioP1;P1;durP2;ratioP2;P2;SDS_P1;SDS_P2;PMS_P1;PMS_P2;Temp;Humidity;BMP_temperature;BMP_pressure;BME280_temperature;BME280_humidity;BME280_pressure;Samples;Min_cycle;Max_cycle;Signal;HPM_P1;HPM_P2
2021/09/24 00:00:40;;;;;;;6.53;5.50;;;;;;;;;;773952;179;918868;-65
2021/09/24 00:03:05;;;;;;;10.57;5.87;;;;;;;;;;778062;179;915444;-65
2021/09/24 00:05:31;;;;;;;9.73;6.57;;;;;;;;;;787096;174;919469;-67
2021/09/24 00:07:57;;;;;;;8.43;6.40;;;;;;;;;;762225;179;921420;-66
2021/09/24 00:10:23;;;;;;;8.90;6.10;;;;;;;;;;765037;179;919548;-65
2021/09/24 00:12:49;;;;;;;10.67;6.57;;;;;;;;;;763724;179;920772;-65
2021/09/24 00:15:15;;;;;;;10.10;6.27;;;;;;;;;;767637;180;915262;-65
2021/09/24 00:17:40;;;;;;;9.63;6.43;;;;;;;;;;770883;180;915849;-63
2021/09/24 00:20:07;;;;;;;7.40;6.13;;;;;;;;;;775606;180;919375;-65
2021/09/24 00:22:33;;;;;;;9.20;5.87;;;;;;;;;;759506;180;921118;-66
2021/09/24 00:24:59;;;;;;;13.23;6.13;;;;;;;;;;763977;180;919221;-65
2021/09/24 00:27:25;;;;;;;8.93;5.80;;;;;;;;;;769172;180;920612;-65
2021/09/24 00:29:50;;;;;;;9.37;5.87;;;;;;;;;;780356;174;919522;-65
2021/09/24 00:32:16;;;;;;;10.60;6.27;;;;;;;;;;766022;180;924092;-65
2021/09/24 00:34:42;;;;;;;13.33;5.80;;;;;;;;;;779530;179;914342;-64
2021/09/24 00:37:08;;;;;;;11.90;5.90;;;;;;;;;;772142;179;915504;-65
2021/09/24 00:39:34;;;;;;;9.00;5.67;;;;;;;;;;761239;179;915593;-65
2021/09/24 00:42:00;;;;;;;9.30;5.93;;;;;;;;;;767956;180;917446;-65
2021/09/24 00:44:25;;;;;;;8.77;7.03;;;;;;;;;;780518;180;919155;-65
2021/09/24 00:46:51;;;;;;;8.00;5.67;;;;;;;;;;767772;180;1021561;-65
2021/09/24 00:49:17;;;;;;;9.47;6.17;;;;;;;;;;760550;180;919737;-64
2021/09/24 00:51:43;;;;;;;21.33;8.00;;;;;;;;;;791961;174;919392;-65
2021/09/24 00:54:09;;;;;;;8.30;5.78;;;;;;;;;;771288;176;918887;-65
2021/09/24 00:56:35;;;;;;;6.37;5.63;;;;;;;;;;773053;180;1020657;-65
2021/09/24 00:59:00;;;;;;;8.63;6.90;;;;;;;;;;787965;176;919483;-65
2021/09/24 01:01:28;;;;;;;9.33;6.20;;;;;;;;;;764257;182;919982;-65
2021/09/24 01:03:52;;;;;;;8.27;5.73;;;;;;;;;;779625;178;920350;-64
2021/09/24 01:06:19;;;;;;;7.62;6.05;;;;;;;;;;782957;178;919469;-64
2021/09/24 01:08:45;;;;;;;7.80;5.87;;;;;;;;;;777307;179;626825;-68
2021/09/24 01:11:11;;;;;;;9.00;5.80;;;;;;;;;;769205;180;918024;-66
2021/09/24 01:13:36;;;;;;;12.13;6.07;;;;;;;;;;769671;180;919466;-65
2021/09/24 01:16:02;;;;;;;7.43;5.20;;;;;;;;;;764437;180;919466;-65
2021/09/24 01:18:28;;;;;;;7.80;5.97;;;;;;;;;;772571;177;919307;-64
2021/09/24 01:20:54;;;;;;;8.10;5.40;;;;;;;;;;777927;178;923397;-65
2021/09/24 01:23:20;;;;;;;9.57;5.60;;;;;;;;;;773960;178;918648;-66
2021/09/24 01:25:46;;;;;;;8.33;6.27;;;;;;;;;;763203;181;918615;-64
2021/09/24 01:28:11;;;;;;;9.87;6.47;;;;;;;;;;783687;178;919211;-65
2021/09/24 01:30:37;;;;;;;8.60;5.60;;;;;;;;;;775858;179;918122;-64
2021/09/24 01:33:03;;;;;;;8.70;4.77;;;;;;;;;;783044;175;918488;-65
2021/09/24 01:35:29;;;;;;;8.70;6.63;;;;;;;;;;780484;178;921039;-65
2021/09/24 01:37:55;;;;;;;7.77;5.40;;;;;;;;;;778315;176;919518;-65
2021/09/24 01:40:21;;;;;;;6.30;4.97;;;;;;;;;;768657;179;918659;-65
2021/09/24 01:42:46;;;;;;;8.43;5.53;;;;;;;;;;765406;179;919009;-66
2021/09/24 01:45:12;;;;;;;9.03;5.93;;;;;;;;;;769293;179;919727;-64
2021/09/24 01:47:38;;;;;;;11.50;5.90;;;;;;;;;;773880;179;919160;-65
2021/09/24 01:50:04;;;;;;;6.93;5.37;;;;;;;;;;767386;179;918632;-64
2021/09/24 01:52:30;;;;;;;7.10;5.90;;;;;;;;;;768329;179;919133;-65
2021/09/24 01:54:56;;;;;;;11.43;5.17;;;;;;;;;;763759;179;2019455;-65
2021/09/24 01:57:22;;;;;;;7.73;5.30;;;;;;;;;;777020;179;928271;-65
2021/09/24 01:59:48;;;;;;;6.57;5.10;;;;;;;;;;771625;180;918860;-65
2021/09/24 02:02:14;;;;;;;7.80;5.87;;;;;;;;;;764846;180;920267;-65
2021/09/24 02:04:39;;;;;;;9.53;5.20;;;;;;;;;;779501;178;919609;-65
2021/09/24 02:07:06;;;;;;;6.40;4.87;;;;;;;;;;783760;175;918997;-65
2021/09/24 02:09:31;;;;;;;10.20;5.67;;;;;;;;;;781007;175;919455;-64
2021/09/24 02:11:57;;;;;;;8.47;5.37;;;;;;;;;;778435;179;919717;-66
2021/09/24 02:14:23;;;;;;;15.77;5.53;;;;;;;;;;766084;175;919774;-64
2021/09/24 02:16:49;;;;;;;7.80;5.83;;;;;;;;;;767496;180;1020712;-66
2021/09/24 02:19:14;;;;;;;9.70;6.13;;;;;;;;;;775481;180;918624;-65
2021/09/24 02:21:40;;;;;;;9.20;5.47;;;;;;;;;;761410;180;917557;-65
2021/09/24 02:24:06;;;;;;;8.23;5.15;;;;;;;;;;771109;180;922229;-65
2021/09/24 02:26:32;;;;;;;8.40;4.93;;;;;;;;;;769346;180;905737;-64
2021/09/24 02:28:58;;;;;;;7.87;5.77;;;;;;;;;;766350;180;919399;-65
2021/09/24 02:31:24;;;;;;;11.43;5.73;;;;;;;;;;784057;175;629590;-65
2021/09/24 02:33:50;;;;;;;8.25;6.45;;;;;;;;;;781762;178;919390;-65
2021/09/24 02:36:15;;;;;;;7.00;5.13;;;;;;;;;;787479;178;919254;-65
2021/09/24 02:38:41;;;;;;;9.00;5.73;;;;;;;;;;775110;180;917400;-65
2021/09/24 02:41:07;;;;;;;6.50;5.30;;;;;;;;;;773974;180;641015;-64
2021/09/24 02:43:33;;;;;;;9.03;5.80;;;;;;;;;;788216;178;618461;-67
2021/09/24 02:45:59;;;;;;;15.77;5.43;;;;;;;;;;756225;182;633799;-65
2021/09/24 02:48:24;;;;;;;8.30;5.20;;;;;;;;;;783594;178;640006;-65
2021/09/24 02:50:50;;;;;;;8.00;4.70;;;;;;;;;;789328;175;634420;-65
2021/09/24 02:53:16;;;;;;;8.10;5.50;;;;;;;;;;777815;180;628255;-65
2021/09/24 02:55:42;;;;;;;7.70;5.63;;;;;;;;;;775155;177;919499;-65
2021/09/24 02:58:08;;;;;;;9.93;6.90;;;;;;;;;;768837;179;918998;-64
2021/09/24 03:00:34;;;;;;;7.13;5.80;;;;;;;;;;775299;179;918488;-67
2021/09/24 03:02:59;;;;;;;7.77;5.13;;;;;;;;;;762679;179;919226;-65
2021/09/24 03:05:25;;;;;;;9.80;6.40;;;;;;;;;;762873;179;933713;-66
2021/09/24 03:07:51;;;;;;;8.87;6.50;;;;;;;;;;769897;180;930603;-65
2021/09/24 03:10:17;;;;;;;15.37;6.10;;;;;;;;;;774214;177;919353;-65
2021/09/24 03:12:43;;;;;;;8.70;5.60;;;;;;;;;;766651;180;918263;-65
2021/09/24 03:15:10;;;;;;;12.73;5.83;;;;;;;;;;774713;180;919477;-64
2021/09/24 03:17:36;;;;;;;7.67;6.00;;;;;;;;;;766906;180;919315;-64
2021/09/24 03:20:01;;;;;;;11.07;6.63;;;;;;;;;;764904;180;918982;-64
2021/09/24 03:22:27;;;;;;;7.10;5.17;;;;;;;;;;769248;179;918832;-65
2021/09/24 03:24:53;;;;;;;8.53;5.57;;;;;;;;;;771727;180;913639;-65
2021/09/24 03:27:19;;;;;;;8.20;5.30;;;;;;;;;;767134;180;916581;-65
2021/09/24 03:29:45;;;;;;;8.10;5.97;;;;;;;;;;766816;180;919295;-64
2021/09/24 03:32:10;;;;;;;8.47;6.47;;;;;;;;;;790113;175;916445;-65
2021/09/24 03:34:36;;;;;;;8.40;5.23;;;;;;;;;;768000;180;911833;-65
2021/09/24 03:37:02;;;;;;;8.67;5.90;;;;;;;;;;787309;176;911479;-65
2021/09/24 03:39:28;;;;;;;8.80;6.97;;;;;;;;;;778024;177;912732;-65
2021/09/24 03:41:55;;;;;;;6.37;5.23;;;;;;;;;;769184;180;919200;-65
2021/09/24 03:44:20;;;;;;;9.93;6.43;;;;;;;;;;779860;176;951570;-65
2021/09/24 03:46:46;;;;;;;7.57;5.93;;;;;;;;;;782583;178;919027;-64
2021/09/24 03:49:12;;;;;;;10.50;5.83;;;;;;;;;;779155;180;919301;-65
2021/09/24 03:51:38;;;;;;;8.27;7.07;;;;;;;;;;765557;179;920192;-66
2021/09/24 03:54:04;;;;;;;7.70;5.30;;;;;;;;;;771326;180;918123;-64
2021/09/24 03:56:29;;;;;;;17.07;6.17;;;;;;;;;;775276;180;919013;-65
2021/09/24 03:58:56;;;;;;;7.83;5.70;;;;;;;;;;774974;178;919415;-66
2021/09/24 04:01:22;;;;;;;11.70;6.00;;;;;;;;;;775564;178;1021605;-65
2021/09/24 04:03:48;;;;;;;8.95;6.12;;;;;;;;;;778886;178;919591;-66
2021/09/24 04:06:13;;;;;;;9.90;5.33;;;;;;;;;;777930;178;916716;-65
2021/09/24 04:08:39;;;;;;;10.13;5.47;;;;;;;;;;769433;180;919682;-67
2021/09/24 04:11:05;;;;;;;7.10;5.60;;;;;;;;;;788078;176;918136;-64
2021/09/24 04:13:31;;;;;;;9.10;5.80;;;;;;;;;;764432;179;918455;-65
2021/09/24 04:15:57;;;;;;;13.77;6.50;;;;;;;;;;769676;179;917338;-65
2021/09/24 04:18:23;;;;;;;6.50;5.20;;;;;;;;;;772032;179;919336;-64
2021/09/24 04:20:49;;;;;;;6.97;6.07;;;;;;;;;;769924;179;932035;-66
2021/09/24 04:23:14;;;;;;;8.40;6.37;;;;;;;;;;770124;180;1219474;-66
2021/09/24 04:25:40;;;;;;;14.20;5.80;;;;;;;;;;774982;180;920179;-65
2021/09/24 04:28:06;;;;;;;9.13;5.57;;;;;;;;;;765699;179;919844;-65
2021/09/24 04:30:32;;;;;;;7.50;5.07;;;;;;;;;;773543;178;917694;-65
2021/09/24 04:32:58;;;;;;;6.83;5.40;;;;;;;;;;776435;180;918519;-64
2021/09/24 04:35:24;;;;;;;7.60;5.67;;;;;;;;;;772418;180;918405;-65
2021/09/24 04:37:49;;;;;;;8.53;5.50;;;;;;;;;;781238;176;919867;-65
2021/09/24 04:40:15;;;;;;;9.17;5.67;;;;;;;;;;772285;180;632036;-65
2021/09/24 04:42:41;;;;;;;7.43;5.17;;;;;;;;;;778483;178;624075;-65
2021/09/24 04:45:07;;;;;;;9.70;5.60;;;;;;;;;;776112;177;919488;-65
2021/09/24 04:47:33;;;;;;;7.10;5.97;;;;;;;;;;779474;178;920460;-65
2021/09/24 04:49:59;;;;;;;9.10;6.30;;;;;;;;;;781687;175;1021018;-64
2021/09/24 04:52:25;;;;;;;10.77;7.10;;;;;;;;;;775469;180;926506;-64
2021/09/24 04:54:53;;;;;;;9.03;6.13;;;;;;;;;;774606;179;919779;-65
2021/09/24 04:57:16;;;;;;;8.90;5.73;;;;;;;;;;777458;179;629176;-65
2021/09/24 04:59:42;;;;;;;7.73;5.67;;;;;;;;;;777294;179;927889;-65
2021/09/24 05:02:08;;;;;;;7.70;5.53;;;;;;;;;;776379;178;919208;-65
2021/09/24 05:04:34;;;;;;;8.33;5.40;;;;;;;;;;776021;176;924157;-65
2021/09/24 05:07:00;;;;;;;6.80;5.50;;;;;;;;;;769006;180;921017;-65
2021/09/24 05:09:26;;;;;;;8.70;5.63;;;;;;;;;;785911;175;919828;-65
2021/09/24 05:11:52;;;;;;;9.87;7.90;;;;;;;;;;776556;176;919420;-65
2021/09/24 05:14:18;;;;;;;9.23;5.63;;;;;;;;;;767348;180;918376;-64
2021/09/24 05:16:44;;;;;;;6.13;5.40;;;;;;;;;;798414;173;914599;-65
2021/09/24 05:19:10;;;;;;;8.35;6.07;;;;;;;;;;772129;178;916873;-64
2021/09/24 05:21:35;;;;;;;9.52;6.25;;;;;;;;;;793974;174;916447;-66
2021/09/24 05:24:03;;;;;;;7.00;5.10;;;;;;;;;;770316;179;915537;-65
2021/09/24 05:26:27;;;;;;;7.87;5.37;;;;;;;;;;764957;182;920371;-64
2021/09/24 05:28:53;;;;;;;9.40;5.90;;;;;;;;;;782271;175;918573;-64
2021/09/24 05:31:19;;;;;;;8.83;5.07;;;;;;;;;;777012;178;919874;-65
2021/09/24 05:33:45;;;;;;;8.17;5.23;;;;;;;;;;766587;177;919096;-65
2021/09/24 05:36:11;;;;;;;7.97;5.07;;;;;;;;;;774324;176;919200;-65
2021/09/24 05:38:36;;;;;;;7.27;4.63;;;;;;;;;;773256;180;918775;-64
2021/09/24 05:41:02;;;;;;;7.87;4.73;;;;;;;;;;776459;179;919129;-64
2021/09/24 05:43:28;;;;;;;7.77;4.83;;;;;;;;;;772846;179;918746;-64
2021/09/24 05:45:54;;;;;;;6.60;4.40;;;;;;;;;;768081;180;919412;-65
2021/09/24 05:48:20;;;;;;;9.97;4.10;;;;;;;;;;781663;179;919025;-65
2021/09/24 05:50:45;;;;;;;4.70;2.90;;;;;;;;;;769607;179;918304;-66
2021/09/24 05:53:11;;;;;;;4.68;2.90;;;;;;;;;;776579;179;919520;-65
2021/09/24 05:55:38;;;;;;;7.33;3.17;;;;;;;;;;779112;179;919129;-65
2021/09/24 05:58:03;;;;;;;4.37;2.10;;;;;;;;;;778337;178;919160;-65
2021/09/24 06:00:29;;;;;;;3.30;2.30;;;;;;;;;;775723;178;919607;-65
2021/09/24 06:02:55;;;;;;;4.60;2.30;;;;;;;;;;772272;179;918836;-64
2021/09/24 06:05:20;;;;;;;6.87;2.62;;;;;;;;;;783874;177;918028;-65
2021/09/24 06:07:46;;;;;;;4.97;2.47;;;;;;;;;;775294;177;919253;-66
2021/09/24 06:10:12;;;;;;;3.03;1.93;;;;;;;;;;759993;180;1031832;-65
2021/09/24 06:12:38;;;;;;;6.93;2.00;;;;;;;;;;769361;180;918646;-66
2021/09/24 06:15:04;;;;;;;5.40;1.80;;;;;;;;;;767068;180;919322;-64
2021/09/24 06:17:31;;;;;;;4.20;1.53;;;;;;;;;;770502;180;919600;-66
2021/09/24 06:19:57;;;;;;;4.10;1.60;;;;;;;;;;777053;180;920489;-66
2021/09/24 06:22:23;;;;;;;4.63;1.83;;;;;;;;;;771465;180;918793;-66
2021/09/24 06:24:48;;;;;;;5.50;1.63;;;;;;;;;;767012;180;918459;-67
2021/09/24 06:27:14;;;;;;;4.07;1.73;;;;;;;;;;769827;179;918410;-65
2021/09/24 06:29:42;;;;;;;5.67;2.20;;;;;;;;;;776834;178;616323;-67
2021/09/24 06:32:08;;;;;;;4.37;1.60;;;;;;;;;;769640;180;918481;-66
2021/09/24 06:34:35;;;;;;;2.97;1.40;;;;;;;;;;779608;176;919405;-66
2021/09/24 06:36:59;;;;;;;3.00;1.50;;;;;;;;;;787144;176;919189;-64
2021/09/24 06:39:25;;;;;;;6.77;1.40;;;;;;;;;;779245;179;922068;-66
2021/09/24 06:41:51;;;;;;;3.40;1.50;;;;;;;;;;784584;177;756103;-66
2021/09/24 06:44:17;;;;;;;5.03;1.50;;;;;;;;;;784324;178;621352;-65
2021/09/24 06:46:43;;;;;;;13.07;1.83;;;;;;;;;;779627;179;919144;-65
2021/09/24 06:49:09;;;;;;;6.30;1.55;;;;;;;;;;760503;180;921674;-65
2021/09/24 06:51:35;;;;;;;4.00;1.55;;;;;;;;;;770403;180;918698;-65
2021/09/24 06:54:01;;;;;;;13.33;2.00;;;;;;;;;;770004;180;936859;-66
2021/09/24 06:56:27;;;;;;;6.10;1.70;;;;;;;;;;769221;180;1022065;-64
2021/09/24 06:58:52;;;;;;;4.20;1.90;;;;;;;;;;779431;174;917428;-66
2021/09/24 07:01:18;;;;;;;7.67;1.80;;;;;;;;;;783912;177;921946;-65
2021/09/24 07:03:44;;;;;;;6.67;1.73;;;;;;;;;;782379;175;919448;-65
2021/09/24 07:06:10;;;;;;;11.43;2.53;;;;;;;;;;774545;174;920077;-66
2021/09/24 07:08:36;;;;;;;3.03;1.80;;;;;;;;;;775281;180;916665;-65
2021/09/24 07:11:02;;;;;;;4.07;1.67;;;;;;;;;;772140;179;919261;-65
2021/09/24 07:13:27;;;;;;;6.63;2.00;;;;;;;;;;770519;179;1020792;-65
2021/09/24 07:15:53;;;;;;;6.23;2.03;;;;;;;;;;768794;179;919986;-66
2021/09/24 07:18:19;;;;;;;4.37;1.50;;;;;;;;;;771419;180;919055;-67
2021/09/24 07:20:45;;;;;;;6.67;2.17;;;;;;;;;;763506;179;919275;-65
2021/09/24 07:23:11;;;;;;;3.97;1.70;;;;;;;;;;780009;177;918476;-65
2021/09/24 07:25:37;;;;;;;4.10;1.60;;;;;;;;;;773107;178;922274;-65
2021/09/24 07:28:02;;;;;;;5.27;2.10;;;;;;;;;;751695;184;914254;-65
2021/09/24 07:30:28;;;;;;;4.17;1.90;;;;;;;;;;772350;181;916053;-65
2021/09/24 07:32:54;;;;;;;6.22;2.10;;;;;;;;;;785333;178;914969;-64
2021/09/24 07:35:20;;;;;;;4.67;1.63;;;;;;;;;;774357;177;919980;-64
2021/09/24 07:37:46;;;;;;;5.97;2.50;;;;;;;;;;777297;177;918292;-66
2021/09/24 07:40:12;;;;;;;6.13;2.03;;;;;;;;;;787013;178;919102;-65
2021/09/24 07:42:38;;;;;;;8.90;1.67;;;;;;;;;;781395;178;919171;-66
2021/09/24 07:45:06;;;;;;;2.70;1.63;;;;;;;;;;779652;178;919511;-65
2021/09/24 07:47:30;;;;;;;7.80;1.77;;;;;;;;;;773613;178;918967;-65
2021/09/24 07:49:56;;;;;;;3.50;1.70;;;;;;;;;;783526;178;918041;-66
2021/09/24 07:52:22;;;;;;;5.53;2.10;;;;;;;;;;777431;179;918385;-64
2021/09/24 07:54:47;;;;;;;4.60;1.95;;;;;;;;;;780869;178;920723;-65
2021/09/24 07:57:13;;;;;;;3.93;1.93;;;;;;;;;;781302;178;919490;-65
2021/09/24 07:59:39;;;;;;;5.50;2.00;;;;;;;;;;769640;177;959612;-65
2021/09/24 08:02:05;;;;;;;3.43;1.90;;;;;;;;;;777656;177;928807;-65
2021/09/24 08:04:31;;;;;;;6.23;2.17;;;;;;;;;;777518;178;918289;-63
2021/09/24 08:06:57;;;;;;;9.73;2.05;;;;;;;;;;780322;179;920271;-64
2021/09/24 08:09:22;;;;;;;4.20;1.73;;;;;;;;;;783626;174;918460;-64
2021/09/24 08:11:49;;;;;;;4.47;2.05;;;;;;;;;;776305;179;921434;-65
2021/09/24 08:14:15;;;;;;;7.73;2.17;;;;;;;;;;783697;179;919343;-65
2021/09/24 08:16:41;;;;;;;4.93;2.20;;;;;;;;;;771636;180;919361;-64
2021/09/24 08:19:07;;;;;;;4.95;2.22;;;;;;;;;;769928;178;919836;-67
2021/09/24 08:21:32;;;;;;;5.97;2.70;;;;;;;;;;775760;179;918692;-65
2021/09/24 08:23:58;;;;;;;5.60;2.25;;;;;;;;;;785922;176;1020979;-66
2021/09/24 08:26:24;;;;;;;24.20;8.57;;;;;;;;;;772162;179;998917;-66
2021/09/24 08:28:50;;;;;;;8.17;3.63;;;;;;;;;;775241;180;922362;-65
2021/09/24 08:31:16;;;;;;;6.80;2.80;;;;;;;;;;771164;180;918121;-66
2021/09/24 08:33:42;;;;;;;7.80;1.97;;;;;;;;;;780141;178;918593;-65
2021/09/24 08:36:07;;;;;;;5.13;2.87;;;;;;;;;;786931;178;917135;-66
2021/09/24 08:38:33;;;;;;;8.23;2.43;;;;;;;;;;783116;178;919557;-65
2021/09/24 08:40:59;;;;;;;5.00;2.07;;;;;;;;;;781710;175;919965;-66
2021/09/24 08:43:25;;;;;;;4.13;2.27;;;;;;;;;;770628;177;920085;-65
2021/09/24 08:45:51;;;;;;;8.90;3.07;;;;;;;;;;780109;180;1011868;-65
2021/09/24 08:48:17;;;;;;;3.80;2.63;;;;;;;;;;772030;180;918754;-65
2021/09/24 08:50:42;;;;;;;6.27;3.00;;;;;;;;;;763552;180;966001;-64
2021/09/24 08:53:08;;;;;;;5.50;2.20;;;;;;;;;;772725;180;913991;-65
2021/09/24 08:55:34;;;;;;;6.37;3.50;;;;;;;;;;775719;180;915652;-65
2021/09/24 08:58:00;;;;;;;32.10;15.40;;;;;;;;;;765068;180;917535;-65
2021/09/24 09:00:26;;;;;;;8.20;3.80;;;;;;;;;;778086;180;912719;-65
2021/09/24 09:02:53;;;;;;;6.17;2.40;;;;;;;;;;769473;180;919289;-64
2021/09/24 09:05:19;;;;;;;11.63;5.93;;;;;;;;;;775478;179;921728;-65
2021/09/24 09:07:45;;;;;;;13.50;4.90;;;;;;;;;;769374;180;919131;-63
2021/09/24 09:10:11;;;;;;;12.40;6.23;;;;;;;;;;771389;181;920758;-65
2021/09/24 09:12:37;;;;;;;8.03;3.40;;;;;;;;;;778062;179;918110;-65
2021/09/24 09:15:03;;;;;;;7.33;3.20;;;;;;;;;;778262;178;917239;-66
2021/09/24 09:17:29;;;;;;;12.63;5.50;;;;;;;;;;785465;176;919499;-65
2021/09/24 09:20:00;;;;;;;11.70;3.57;;;;;;;;;;753528;183;918649;-64
2021/09/24 09:22:26;;;;;;;12.03;5.10;;;;;;;;;;782345;175;934703;-64
2021/09/24 09:24:52;;;;;;;11.57;6.40;;;;;;;;;;766596;179;918772;-65
2021/09/24 09:27:18;;;;;;;9.60;2.70;;;;;;;;;;775936;179;919658;-64
2021/09/24 09:29:59;;;;;;;5.40;2.20;;;;;;;;;;778684;177;924205;-66
2021/09/24 09:32:25;;;;;;;10.67;2.73;;;;;;;;;;767137;180;917949;-65
2021/09/24 09:34:51;;;;;;;7.95;2.53;;;;;;;;;;768837;180;919208;-66
2021/09/24 09:37:17;;;;;;;8.90;2.23;;;;;;;;;;767651;180;920487;-65
2021/09/24 09:39:43;;;;;;;6.57;2.60;;;;;;;;;;771819;180;917428;-65
2021/09/24 09:42:09;;;;;;;8.70;1.70;;;;;;;;;;778510;176;919900;-66
2021/09/24 09:44:35;;;;;;;4.00;1.93;;;;;;;;;;774160;180;919432;-65
2021/09/24 09:47:00;;;;;;;8.60;1.80;;;;;;;;;;778848;175;920548;-65
2021/09/24 09:49:26;;;;;;;11.63;2.70;;;;;;;;;;781344;178;919784;-65
2021/09/24 09:52:07;;;;;;;3.30;2.00;;;;;;;;;;783889;178;918446;-63
2021/09/24 09:54:33;;;;;;;4.53;2.40;;;;;;;;;;771532;179;919528;-66
2021/09/24 09:57:11;;;;;;;5.10;1.93;;;;;;;;;;784173;175;919066;-66
2021/09/24 09:59:37;;;;;;;4.47;1.90;;;;;;;;;;776202;179;919217;-65
2021/09/24 10:02:10;;;;;;;6.30;2.40;;;;;;;;;;773663;179;920905;-65
2021/09/24 10:04:37;;;;;;;5.07;2.40;;;;;;;;;;779794;176;920306;-66
2021/09/24 10:07:02;;;;;;;6.33;3.00;;;;;;;;;;773348;177;916095;-66
2021/09/24 10:09:31;;;;;;;7.20;2.23;;;;;;;;;;762851;180;913056;-66
2021/09/24 10:11:54;;;;;;;5.30;2.50;;;;;;;;;;765265;180;922883;-66
2021/09/24 10:14:20;;;;;;;8.17;2.40;;;;;;;;;;774215;179;920915;-66
2021/09/24 10:16:46;;;;;;;5.00;2.10;;;;;;;;;;772840;179;974208;-67
2021/09/24 10:19:11;;;;;;;10.33;4.20;;;;;;;;;;770655;179;917211;-66
2021/09/24 10:21:38;;;;;;;4.40;2.60;;;;;;;;;;771277;176;914153;-65
2021/09/24 10:24:04;;;;;;;6.13;2.73;;;;;;;;;;772459;178;919675;-67
2021/09/24 10:26:33;;;;;;;5.50;2.37;;;;;;;;;;779779;178;912972;-66
2021/09/24 10:28:59;;;;;;;8.93;2.90;;;;;;;;;;779476;178;919652;-66
2021/09/24 10:31:26;;;;;;;6.03;2.20;;;;;;;;;;786113;178;1122515;-65
2021/09/24 10:33:51;;;;;;;6.50;2.53;;;;;;;;;;775971;175;913711;-67
2021/09/24 10:36:23;;;;;;;12.20;2.17;;;;;;;;;;777254;178;921717;-65
2021/09/24 10:38:48;;;;;;;11.83;3.23;;;;;;;;;;774511;177;924379;-65
2021/09/24 10:41:14;;;;;;;6.60;2.10;;;;;;;;;;777492;176;920564;-66
2021/09/24 10:43:42;;;;;;;5.00;1.93;;;;;;;;;;768819;179;920450;-66
2021/09/24 10:46:23;;;;;;;6.17;2.90;;;;;;;;;;762480;180;919646;-65
2021/09/24 10:48:48;;;;;;;9.63;2.60;;;;;;;;;;763893;180;915034;-68
2021/09/24 10:51:14;;;;;;;2.87;1.80;;;;;;;;;;779383;175;920521;-66
2021/09/24 10:53:42;;;;;;;8.03;2.40;;;;;;;;;;766713;180;912177;-68
2021/09/24 10:56:22;;;;;;;6.93;2.70;;;;;;;;;;765691;180;910497;-68
2021/09/24 10:58:47;;;;;;;6.57;1.97;;;;;;;;;;765158;180;911016;-67
2021/09/24 11:01:19;;;;;;;6.13;2.43;;;;;;;;;;790324;175;910579;-66
2021/09/24 11:03:50;;;;;;;5.17;2.00;;;;;;;;;;760983;183;919539;-68
2021/09/24 11:06:16;;;;;;;6.03;2.53;;;;;;;;;;765797;179;919402;-68
2021/09/24 11:08:42;;;;;;;7.03;2.70;;;;;;;;;;764372;181;918855;-66
2021/09/24 11:11:09;;;;;;;14.03;3.13;;;;;;;;;;778884;178;918322;-66
2021/09/24 11:13:35;;;;;;;9.23;3.37;;;;;;;;;;763168;180;919320;-67
2021/09/24 11:16:01;;;;;;;6.50;2.50;;;;;;;;;;773755;177;919643;-68
2021/09/24 11:18:41;;;;;;;5.83;2.37;;;;;;;;;;776105;176;919663;-65
2021/09/24 11:21:08;;;;;;;6.30;2.43;;;;;;;;;;768409;179;920327;-65
2021/09/24 11:23:35;;;;;;;13.40;3.07;;;;;;;;;;761354;177;3893309;-65
2021/09/24 11:26:21;;;;;;;8.07;2.93;;;;;;;;;;770952;179;919056;-66
2021/09/24 11:28:46;;;;;;;14.90;3.13;;;;;;;;;;770811;175;919211;-68
2021/09/24 11:31:12;;;;;;;4.63;2.23;;;;;;;;;;761695;180;934534;-66
2021/09/24 11:33:40;;;;;;;4.60;2.40;;;;;;;;;;780925;178;1222344;-66
2021/09/24 11:36:06;;;;;;;5.43;2.23;;;;;;;;;;774613;178;911518;-67
2021/09/24 11:38:32;;;;;;;5.87;2.50;;;;;;;;;;780044;177;918982;-64
2021/09/24 11:40:58;;;;;;;7.78;3.10;;;;;;;;;;777868;178;919670;-65
2021/09/24 11:43:39;;;;;;;6.50;2.80;;;;;;;;;;784861;176;918571;-67
2021/09/24 11:46:10;;;;;;;11.03;2.83;;;;;;;;;;760879;182;915821;-68
2021/09/24 11:48:37;;;;;;;15.00;2.83;;;;;;;;;;766166;181;939219;-66
2021/09/24 11:51:07;;;;;;;7.83;2.63;;;;;;;;;;771721;179;918946;-68
2021/09/24 11:53:32;;;;;;;7.83;3.30;;;;;;;;;;774203;179;919068;-68
2021/09/24 11:56:00;;;;;;;6.80;2.80;;;;;;;;;;775675;178;919221;-67
2021/09/24 11:58:24;;;;;;;6.23;2.87;;;;;;;;;;770450;180;919156;-67
2021/09/24 12:00:52;;;;;;;9.83;3.23;;;;;;;;;;768070;180;994655;-66
2021/09/24 12:03:19;;;;;;;9.73;2.53;;;;;;;;;;778756;180;918924;-69
2021/09/24 12:05:50;;;;;;;9.17;3.00;;;;;;;;;;773055;179;919722;-68
2021/09/24 12:08:16;;;;;;;4.50;2.23;;;;;;;;;;774513;177;918762;-65
2021/09/24 12:10:41;;;;;;;7.90;2.37;;;;;;;;;;783389;177;916616;-66
2021/09/24 12:13:08;;;;;;;8.77;2.33;;;;;;;;;;778714;177;919430;-70
2021/09/24 12:15:40;;;;;;;9.47;2.93;;;;;;;;;;774925;177;918917;-67
2021/09/24 12:18:06;;;;;;;4.10;2.10;;;;;;;;;;777041;178;1019726;-67
2021/09/24 12:20:32;;;;;;;7.97;2.75;;;;;;;;;;782603;178;918698;-67
2021/09/24 12:22:57;;;;;;;4.23;1.90;;;;;;;;;;765105;179;919768;-68
2021/09/24 12:25:23;;;;;;;4.17;1.80;;;;;;;;;;778424;177;919450;-68
2021/09/24 12:27:51;;;;;;;6.97;2.20;;;;;;;;;;790793;175;918836;-69
2021/09/24 12:30:15;;;;;;;6.30;2.20;;;;;;;;;;781494;178;903043;-68
2021/09/24 12:32:41;;;;;;;5.53;2.30;;;;;;;;;;782247;176;918687;-68
2021/09/24 12:35:07;;;;;;;6.77;2.50;;;;;;;;;;778880;175;1122674;-68
2021/09/24 12:37:33;;;;;;;5.70;2.30;;;;;;;;;;781731;178;918388;-68
2021/09/24 12:39:59;;;;;;;9.67;3.77;;;;;;;;;;761711;180;919595;-69
2021/09/24 12:42:25;;;;;;;9.43;2.47;;;;;;;;;;777550;177;918989;-68
2021/09/24 12:44:52;;;;;;;4.87;1.70;;;;;;;;;;790008;174;914315;-68
2021/09/24 12:47:18;;;;;;;11.10;2.87;;;;;;;;;;780782;178;918038;-69
2021/09/24 12:49:44;;;;;;;4.27;2.17;;;;;;;;;;779596;178;918593;-69
2021/09/24 12:52:10;;;;;;;7.90;2.80;;;;;;;;;;786475;177;917903;-68
2021/09/24 12:54:36;;;;;;;4.90;2.23;;;;;;;;;;774583;179;1021641;-69
2021/09/24 12:57:01;;;;;;;11.40;2.37;;;;;;;;;;780480;177;918346;-68
2021/09/24 12:59:27;;;;;;;3.78;2.22;;;;;;;;;;777987;175;918474;-68
2021/09/24 13:01:53;;;;;;;5.30;1.83;;;;;;;;;;783080;178;918693;-68
2021/09/24 13:04:19;;;;;;;8.33;2.37;;;;;;;;;;777663;175;919182;-68
2021/09/24 13:06:45;;;;;;;14.13;3.50;;;;;;;;;;769775;179;918434;-68
2021/09/24 13:09:11;;;;;;;8.80;2.60;;;;;;;;;;775420;179;918535;-68
2021/09/24 13:11:36;;;;;;;4.90;2.50;;;;;;;;;;768781;179;917977;-69
2021/09/24 13:14:02;;;;;;;5.63;2.93;;;;;;;;;;767667;179;923807;-67
2021/09/24 13:16:28;;;;;;;5.63;2.90;;;;;;;;;;770646;179;919347;-70
2021/09/24 13:18:54;;;;;;;7.03;3.00;;;;;;;;;;773154;179;919108;-69
2021/09/24 13:21:21;;;;;;;6.93;2.50;;;;;;;;;;775610;177;920849;-69
2021/09/24 13:23:46;;;;;;;8.63;4.43;;;;;;;;;;770545;179;918395;-68
2021/09/24 13:26:12;;;;;;;4.93;2.57;;;;;;;;;;775810;179;918502;-71
2021/09/24 13:28:38;;;;;;;8.13;2.60;;;;;;;;;;767162;180;919042;-67
2021/09/24 13:31:04;;;;;;;4.20;2.73;;;;;;;;;;765273;179;918794;-70
2021/09/24 13:33:30;;;;;;;6.13;2.83;;;;;;;;;;769518;179;918874;-69
2021/09/24 13:35:56;;;;;;;5.43;2.40;;;;;;;;;;769038;179;918579;-69
2021/09/24 13:38:21;;;;;;;6.30;3.37;;;;;;;;;;766359;179;918408;-70
2021/09/24 13:40:47;;;;;;;5.40;3.20;;;;;;;;;;771488;179;918720;-70
2021/09/24 13:43:13;;;;;;;7.80;2.87;;;;;;;;;;766129;180;919350;-69
2021/09/24 13:45:39;;;;;;;6.10;3.00;;;;;;;;;;765986;180;1682315;-68
2021/09/24 13:48:05;;;;;;;9.70;2.77;;;;;;;;;;769199;179;920443;-69
2021/09/24 13:50:31;;;;;;;7.57;2.80;;;;;;;;;;785609;175;918904;-69
2021/09/24 13:52:56;;;;;;;4.23;3.07;;;;;;;;;;767588;180;918471;-68
2021/09/24 13:55:22;;;;;;;5.07;3.63;;;;;;;;;;770496;179;918909;-68
2021/09/24 13:57:48;;;;;;;5.00;3.30;;;;;;;;;;776657;179;918908;-71
2021/09/24 14:00:14;;;;;;;7.10;3.87;;;;;;;;;;771739;179;918509;-70
2021/09/24 14:02:40;;;;;;;6.67;3.23;;;;;;;;;;769711;177;930603;-69
2021/09/24 14:05:06;;;;;;;5.65;3.30;;;;;;;;;;776793;179;920485;-70
2021/09/24 14:07:32;;;;;;;6.07;3.20;;;;;;;;;;784034;176;918473;-71
2021/09/24 14:09:58;;;;;;;6.60;3.03;;;;;;;;;;776076;179;919419;-68
2021/09/24 14:12:25;;;;;;;4.82;2.95;;;;;;;;;;777745;179;918847;-68
2021/09/24 14:14:50;;;;;;;6.03;3.67;;;;;;;;;;775680;179;918201;-70
2021/09/24 14:17:16;;;;;;;5.00;2.70;;;;;;;;;;780098;177;919745;-70
2021/09/24 14:19:42;;;;;;;5.83;3.37;;;;;;;;;;771094;179;946630;-68
2021/09/24 14:22:08;;;;;;;5.17;3.10;;;;;;;;;;784466;174;919428;-70